createdAt,value
2018-03-20T00:00:07.523Z,38.33
2018-03-20T00:02:35.488Z,43.23
2018-03-20T00:05:03.353Z,38.00
2018-03-20T00:07:31.086Z,36.80
2018-03-20T00:09:59.559Z,39.93
2018-03-20T00:12:28.033Z,37.23
2018-03-20T00:14:55.877Z,40.77
2018-03-20T00:17:24.685Z,68.03
2018-03-20T00:19:52.565Z,41.73
2018-03-20T00:22:20.341Z,38.27
2018-03-20T00:24:47.937Z,42.10
2018-03-20T00:27:16.375Z,37.77
2018-03-20T00:29:44.073Z,39.50
2018-03-20T00:32:11.662Z,40.60
2018-03-20T00:34:39.209Z,40.63
2018-03-20T00:37:06.937Z,34.33
2018-03-20T00:39:34.725Z,35.57
2018-03-20T00:42:02.542Z,35.93
2018-03-20T00:44:30.105Z,34.47
2018-03-20T00:46:57.890Z,32.10
2018-03-20T00:49:25.984Z,34.10
2018-03-20T00:51:53.838Z,34.23
2018-03-20T00:54:21.958Z,33.40
2018-03-20T00:56:50.437Z,37.03
2018-03-20T00:59:19.087Z,37.10
2018-03-20T01:01:46.682Z,34.60
2018-03-20T01:04:14.244Z,33.60
2018-03-20T01:06:42.214Z,33.47
2018-03-20T01:09:10.122Z,32.93
2018-03-20T01:11:37.951Z,36.37
2018-03-20T01:14:05.532Z,36.10
2018-03-20T01:16:33.301Z,33.60
2018-03-20T01:19:00.850Z,32.20
2018-03-20T01:21:28.409Z,49.60
2018-03-20T01:23:55.993Z,45.97
2018-03-20T01:26:23.694Z,38.40
2018-03-20T01:28:51.297Z,35.20
2018-03-20T01:31:19.170Z,35.67
2018-03-20T01:33:46.721Z,33.23
2018-03-20T01:36:14.401Z,35.37
2018-03-20T01:38:41.977Z,31.53
2018-03-20T01:41:09.726Z,34.63
2018-03-20T01:43:37.278Z,32.50
2018-03-20T01:46:05.078Z,34.07
2018-03-20T01:48:33.553Z,31.97
2018-03-20T01:51:02.024Z,34.87
2018-03-20T01:53:30.526Z,36.87
2018-03-20T01:55:59.202Z,37.37
2018-03-20T01:58:27.517Z,34.90
2018-03-20T02:00:55.109Z,39.67
2018-03-20T02:03:22.661Z,34.93
2018-03-20T02:05:50.426Z,34.80
2018-03-20T02:08:18.028Z,33.07
2018-03-20T02:10:45.691Z,36.63
2018-03-20T02:13:13.238Z,36.83
2018-03-20T02:15:41.873Z,35.87
2018-03-20T02:18:09.430Z,34.23
2018-03-20T02:20:36.981Z,33.53
2018-03-20T02:23:04.906Z,34.87
2018-03-20T02:25:33.224Z,34.73
2018-03-20T02:28:01.063Z,33.23
2018-03-20T02:30:29.011Z,31.10
2018-03-20T02:32:56.890Z,30.63
2018-03-20T02:35:24.437Z,32.83
2018-03-20T02:37:52.800Z,37.10
2018-03-20T02:40:21.077Z,31.47
2018-03-20T02:42:48.635Z,31.13
2018-03-20T02:45:17.087Z,34.57
2018-03-20T02:47:44.901Z,34.07
2018-03-20T02:50:12.823Z,31.77
2018-03-20T02:52:40.410Z,39.07
2018-03-20T02:55:08.122Z,44.67
2018-03-20T02:57:36.013Z,42.20
2018-03-20T03:00:03.756Z,37.10
2018-03-20T03:02:31.542Z,34.53
2018-03-20T03:04:59.107Z,36.53
2018-03-20T03:07:26.737Z,32.53
2018-03-20T03:09:54.485Z,34.70
2018-03-20T03:12:22.908Z,31.63
2018-03-20T03:14:50.930Z,32.23
2018-03-20T03:17:18.481Z,37.67
2018-03-20T03:19:46.182Z,31.30
2018-03-20T03:22:13.769Z,37.73
2018-03-20T03:24:41.313Z,36.20
2018-03-20T03:27:08.928Z,35.00
2018-03-20T03:29:36.653Z,32.93
2018-03-20T03:32:05.046Z,33.83
2018-03-20T03:34:32.757Z,32.80
2018-03-20T03:37:00.410Z,32.53
2018-03-20T03:39:28.086Z,34.23
2018-03-20T03:41:55.953Z,32.87
2018-03-20T03:44:23.533Z,32.30
2018-03-20T03:46:51.081Z,34.13
2018-03-20T03:49:19.401Z,32.23
2018-03-20T03:51:47.029Z,34.23
2018-03-20T03:54:15.422Z,33.60
2018-03-20T03:56:43.176Z,33.07
2018-03-20T03:59:12.213Z,34.30
2018-03-20T04:01:39.758Z,34.97
2018-03-20T04:04:07.498Z,34.53
2018-03-20T04:06:35.115Z,34.57
2018-03-20T04:09:03.460Z,33.47
2018-03-20T04:11:31.106Z,41.67
2018-03-20T04:13:58.864Z,37.40
2018-03-20T04:16:26.673Z,35.90
2018-03-20T04:18:54.334Z,36.63
2018-03-20T04:21:22.178Z,35.23
2018-03-20T04:23:49.737Z,36.40
2018-03-20T04:26:17.297Z,35.23
2018-03-20T04:28:44.979Z,34.90
2018-03-20T04:31:12.790Z,35.70
2018-03-20T04:33:40.334Z,37.97
2018-03-20T04:36:08.686Z,38.13
2018-03-20T04:38:36.371Z,34.90
2018-03-20T04:41:03.930Z,35.37
2018-03-20T04:43:31.953Z,34.50
2018-03-20T04:45:59.691Z,39.13
2018-03-20T04:48:27.239Z,31.17
2018-03-20T04:50:55.150Z,28.20
2018-03-20T04:53:23.025Z,29.77
2018-03-20T04:55:50.570Z,30.43
2018-03-20T04:58:18.325Z,29.17
2018-03-20T05:00:46.157Z,27.20
2018-03-20T05:03:13.705Z,27.33
2018-03-20T05:05:41.574Z,29.87
2018-03-20T05:08:09.185Z,29.87
2018-03-20T05:10:37.550Z,30.17
2018-03-20T05:13:05.129Z,29.20
2018-03-20T05:15:32.930Z,29.97
2018-03-20T05:18:00.618Z,28.93
2018-03-20T05:20:33.874Z,30.17
2018-03-20T05:23:07.983Z,29.93
2018-03-20T05:25:35.714Z,30.83
2018-03-20T05:28:03.789Z,29.27
2018-03-20T05:30:31.403Z,27.60
2018-03-20T05:44:42.969Z,36.37
2018-03-20T05:47:26.124Z,34.53
2018-03-20T05:50:00.114Z,31.87
2018-03-20T05:52:30.451Z,32.30
2018-03-20T05:54:58.786Z,48.33
2018-03-20T05:57:26.668Z,43.13
2018-03-20T05:59:54.272Z,42.60
2018-03-20T06:02:22.294Z,48.30
2018-03-20T06:04:50.203Z,40.60
2018-03-20T06:07:17.765Z,49.20
2018-03-20T06:09:45.451Z,42.20
2018-03-20T06:12:13.038Z,39.90
2018-03-20T06:14:40.595Z,33.83
2018-03-20T06:17:08.291Z,35.57
2018-03-20T06:19:36.687Z,36.73
2018-03-20T06:22:04.241Z,42.20
2018-03-20T06:24:32.855Z,45.27
2018-03-20T06:27:00.469Z,41.33
2018-03-20T06:29:28.047Z,40.57
2018-03-20T06:31:55.667Z,37.50
2018-03-20T06:34:24.187Z,37.77
2018-03-20T06:36:51.739Z,36.80
2018-03-20T06:39:19.339Z,37.13
2018-03-20T06:41:47.315Z,40.10
2018-03-20T06:44:14.870Z,41.83
2018-03-20T06:46:42.489Z,42.60
2018-03-20T06:49:10.260Z,44.00
2018-03-20T06:51:38.139Z,42.27
2018-03-20T06:54:05.806Z,43.67
2018-03-20T06:56:33.533Z,44.17
2018-03-20T06:59:01.847Z,47.03
2018-03-20T07:01:29.421Z,49.60
2018-03-20T07:17:16.131Z,48.50
2018-03-20T07:19:43.997Z,44.20
2018-03-20T07:22:11.551Z,44.10
2018-03-20T07:24:39.338Z,42.77
2018-03-20T07:27:06.898Z,39.70
2018-03-20T07:29:34.454Z,42.13
2018-03-20T07:32:02.187Z,37.43
2018-03-20T07:34:30.014Z,34.37
2018-03-20T07:36:57.543Z,36.87
2018-03-20T07:39:25.129Z,29.50
2018-03-20T07:41:53.442Z,31.53
2018-03-20T07:44:21.034Z,29.67
2018-03-20T07:46:48.634Z,31.57
2018-03-20T07:49:16.378Z,30.73
2018-03-20T07:51:44.698Z,31.13
2018-03-20T07:54:12.470Z,34.30
2018-03-20T07:56:40.073Z,29.90
2018-03-20T07:59:07.671Z,30.97
2018-03-20T08:01:35.351Z,33.27
2018-03-20T08:04:03.058Z,31.03
2018-03-20T08:06:30.607Z,29.77
2018-03-20T08:08:58.958Z,26.23
2018-03-20T08:11:26.898Z,30.73
2018-03-20T08:13:54.457Z,29.47
2018-03-20T08:16:22.033Z,32.17
2018-03-20T08:18:49.705Z,32.53
2018-03-20T08:21:18.153Z,32.63
2018-03-20T08:23:45.801Z,33.43
2018-03-20T08:26:13.347Z,33.90
2018-03-20T08:28:40.896Z,36.30
2018-03-20T08:31:08.473Z,35.33
2018-03-20T08:33:36.024Z,32.27
2018-03-20T08:36:03.807Z,28.67
2018-03-20T08:38:31.393Z,29.03
2018-03-20T08:40:59.081Z,29.50
2018-03-20T08:43:27.647Z,29.83
2018-03-20T08:45:55.233Z,28.43
2018-03-20T08:48:23.552Z,28.13
2018-03-20T08:50:51.103Z,26.33
2018-03-20T08:53:18.709Z,25.97
2018-03-20T08:55:46.313Z,26.77
2018-03-20T08:58:14.062Z,27.03
2018-03-20T09:00:41.654Z,25.27
2018-03-20T09:03:09.198Z,28.23
2018-03-20T09:05:37.069Z,28.20
2018-03-20T09:08:04.653Z,21.10
2018-03-20T09:10:32.205Z,18.50
2018-03-20T09:12:59.860Z,17.63
2018-03-20T09:15:27.446Z,20.50
2018-03-20T09:17:55.028Z,21.30
2018-03-20T09:20:23.851Z,22.73
2018-03-20T09:22:51.498Z,19.60
2018-03-20T09:25:19.043Z,25.17
2018-03-20T09:27:46.649Z,52.70
2018-03-20T09:30:14.290Z,25.53
2018-03-20T09:32:41.891Z,35.10
2018-03-20T09:35:09.438Z,20.30
2018-03-20T09:37:37.307Z,24.47
2018-03-20T09:40:05.373Z,22.00
2018-03-20T09:42:32.936Z,21.43
2018-03-20T09:45:00.534Z,20.80
2018-03-20T09:47:28.084Z,22.30
2018-03-20T09:49:55.638Z,25.50
2018-03-20T09:52:24.312Z,24.03
2018-03-20T09:54:52.943Z,21.47
2018-03-20T09:57:20.507Z,22.73
2018-03-20T09:59:48.182Z,23.67
2018-03-20T10:02:15.728Z,27.60
2018-03-20T10:04:43.417Z,26.17
2018-03-20T10:07:11.423Z,26.20
2018-03-20T10:09:38.973Z,26.70
2018-03-20T10:12:07.297Z,28.30
2018-03-20T10:14:34.897Z,30.50
2018-03-20T10:17:03.215Z,32.53
2018-03-20T10:19:30.852Z,29.07
2018-03-20T10:21:58.709Z,36.17
2018-03-20T10:24:27.532Z,31.70
2018-03-20T10:26:55.089Z,31.10
2018-03-20T10:29:22.670Z,33.00
2018-03-20T10:31:50.683Z,29.30
2018-03-20T10:34:18.319Z,33.00
2018-03-20T10:36:45.916Z,34.33
2018-03-20T10:39:13.618Z,33.83
2018-03-20T10:41:41.185Z,42.30
2018-03-20T10:44:08.782Z,33.33
2018-03-20T10:46:36.335Z,32.87
2018-03-20T10:49:04.665Z,34.20
2018-03-20T10:51:32.253Z,32.17
2018-03-20T10:54:00.643Z,28.83
2018-03-20T10:56:28.245Z,35.07
2018-03-20T10:58:55.833Z,28.23
2018-03-20T11:01:29.199Z,27.47
2018-03-20T11:03:56.785Z,26.90
2018-03-20T11:06:24.581Z,26.90
2018-03-20T11:08:52.952Z,34.07
2018-03-20T11:11:20.538Z,27.07
2018-03-20T11:13:48.090Z,35.53
2018-03-20T11:16:15.685Z,26.43
2018-03-20T11:18:43.397Z,30.83
2018-03-20T11:21:10.961Z,26.63
2018-03-20T11:23:39.386Z,27.03
2018-03-20T11:26:06.979Z,28.93
2018-03-20T11:28:34.565Z,26.90
2018-03-20T11:31:02.122Z,26.97
2018-03-20T11:33:29.866Z,28.40
2018-03-20T11:35:58.187Z,26.60
2018-03-20T11:38:25.914Z,28.10
2018-03-20T11:40:54.241Z,27.27
2018-03-20T11:43:21.791Z,27.10
2018-03-20T11:45:49.382Z,29.87
2018-03-20T11:48:17.038Z,33.20
2018-03-20T11:50:44.586Z,26.30
2018-03-20T11:53:12.137Z,30.97
2018-03-20T11:55:39.812Z,27.53
2018-03-20T11:58:07.381Z,26.30
2018-03-20T12:00:34.937Z,25.33
2018-03-20T12:03:02.596Z,26.10
2018-03-20T12:05:30.630Z,29.60
2018-03-20T12:07:58.265Z,32.17
2018-03-20T12:10:25.850Z,29.23
2018-03-20T12:12:53.405Z,30.50
2018-03-20T12:27:32.334Z,36.53
2018-03-20T12:29:59.882Z,33.67
2018-03-20T12:32:27.454Z,32.80
2018-03-20T12:34:55.115Z,39.10
2018-03-20T12:37:22.767Z,43.10
2018-03-20T12:39:50.321Z,36.87
2018-03-20T12:42:17.965Z,34.90
2018-03-20T12:44:45.516Z,34.10
2018-03-20T12:47:13.098Z,33.57
2018-03-20T12:49:40.683Z,34.83
2018-03-20T12:52:10.050Z,33.70
2018-03-20T12:54:37.609Z,33.67
2018-03-20T12:57:05.235Z,34.47
2018-03-20T12:59:33.646Z,35.30
2018-03-20T13:02:01.194Z,34.13
2018-03-20T13:04:28.842Z,34.87
2018-03-20T13:06:56.451Z,35.23
2018-03-20T13:09:24.008Z,33.87
2018-03-20T13:11:51.671Z,33.77
2018-03-20T13:14:19.257Z,29.97
2018-03-20T13:16:47.602Z,32.70
2018-03-20T13:19:15.231Z,33.77
2018-03-20T13:21:42.774Z,35.47
2018-03-20T13:24:10.330Z,35.53
2018-03-20T13:26:37.918Z,34.33
2018-03-20T13:29:05.582Z,28.40
2018-03-20T13:31:33.141Z,30.33
2018-03-20T13:45:49.678Z,26.23
2018-03-20T13:48:17.262Z,26.23
2018-03-20T13:50:44.890Z,26.20
2018-03-20T13:53:13.301Z,25.53
2018-03-20T13:55:40.860Z,25.10
2018-03-20T13:58:08.474Z,25.53
2018-03-20T14:00:36.069Z,26.57
2018-03-20T14:03:03.640Z,25.30
2018-03-20T14:05:31.249Z,25.70
2018-03-20T14:07:58.882Z,26.20
2018-03-20T14:10:26.445Z,29.13
2018-03-20T14:12:54.017Z,26.30
2018-03-20T14:15:21.817Z,28.90
2018-03-20T14:17:49.377Z,29.20
2018-03-20T14:20:17.063Z,43.23
2018-03-20T14:22:44.725Z,30.60
2018-03-20T14:25:12.289Z,28.23
2018-03-20T14:27:39.861Z,26.17
2018-03-20T14:30:07.811Z,28.87
2018-03-20T14:32:35.378Z,34.40
2018-03-20T14:35:02.953Z,30.00
2018-03-20T14:37:30.758Z,30.40
2018-03-20T14:39:58.337Z,27.07
2018-03-20T14:42:25.944Z,29.20
2018-03-20T14:44:53.537Z,28.57
2018-03-20T14:47:21.303Z,33.13
2018-03-20T14:49:48.878Z,38.53
2018-03-20T14:52:16.479Z,38.23
2018-03-20T14:54:44.211Z,49.63
2018-03-20T14:57:11.862Z,53.60
2018-03-20T14:59:39.458Z,41.53
2018-03-20T15:02:07.011Z,46.57
2018-03-20T15:04:34.574Z,122.50
2018-03-20T15:07:02.206Z,66.43
2018-03-20T15:09:29.769Z,108.07
2018-03-20T15:11:57.334Z,105.40
2018-03-20T15:14:25.558Z,72.10
2018-03-20T15:16:53.220Z,57.27
2018-03-20T15:19:21.021Z,40.97
2018-03-20T15:21:48.684Z,37.50
2018-03-20T15:24:16.242Z,42.27
2018-03-20T15:26:43.976Z,49.33
2018-03-20T15:29:11.654Z,39.90
2018-03-20T15:31:39.371Z,48.23
2018-03-20T15:34:07.628Z,40.97
2018-03-20T15:36:35.295Z,59.00
2018-03-20T15:39:03.126Z,58.23
2018-03-20T15:41:30.787Z,78.47
2018-03-20T15:43:58.423Z,67.93
2018-03-20T15:46:26.113Z,56.13
2018-03-20T15:48:53.683Z,41.17
2018-03-20T15:51:21.315Z,38.37
2018-03-20T15:53:48.901Z,42.63
2018-03-20T15:56:16.480Z,34.77
2018-03-20T15:58:46.050Z,34.67
2018-03-20T16:01:13.616Z,36.70
2018-03-20T16:03:41.414Z,52.50
2018-03-20T16:06:09.650Z,41.90
2018-03-20T16:08:37.511Z,39.83
2018-03-20T16:11:05.094Z,46.37
2018-03-20T16:13:32.716Z,50.33
2018-03-20T16:16:00.305Z,47.77
2018-03-20T16:18:27.908Z,42.57
2018-03-20T16:20:55.521Z,52.07
2018-03-20T16:23:23.478Z,71.97
2018-03-20T16:25:51.097Z,52.87
2018-03-20T16:28:18.764Z,53.27
2018-03-20T16:30:46.384Z,46.67
2018-03-20T16:33:14.042Z,56.27
2018-03-20T16:35:41.656Z,50.90
2018-03-20T16:38:09.850Z,33.77
2018-03-20T16:40:37.713Z,36.50
2018-03-20T16:43:05.321Z,36.70
2018-03-20T16:45:32.882Z,39.50
2018-03-20T16:48:01.217Z,56.73
2018-03-20T16:50:29.374Z,65.93
2018-03-20T16:52:56.977Z,55.53
2018-03-20T16:55:24.599Z,55.23
2018-03-20T16:57:52.574Z,49.47
2018-03-20T17:00:20.331Z,36.60
2018-03-20T17:02:48.299Z,44.13
2018-03-20T17:05:16.120Z,41.20
2018-03-20T17:07:43.825Z,34.87
2018-03-20T17:10:12.308Z,33.67
2018-03-20T17:12:40.104Z,34.57
2018-03-20T17:15:07.987Z,50.67
2018-03-20T17:17:35.982Z,49.50
2018-03-20T17:20:03.710Z,61.20
2018-03-20T17:22:31.289Z,49.13
2018-03-20T17:25:00.320Z,57.67
2018-03-20T17:27:28.181Z,76.70
2018-03-20T17:29:56.512Z,55.20
2018-03-20T17:32:24.332Z,50.83
2018-03-20T17:34:52.288Z,54.03
2018-03-20T17:37:19.862Z,69.27
2018-03-20T17:39:47.920Z,75.50
2018-03-20T17:42:15.559Z,95.87
2018-03-20T17:44:44.877Z,132.90
2018-03-20T17:47:13.273Z,91.57
2018-03-20T17:49:41.839Z,90.53
2018-03-20T17:52:10.368Z,87.47
2018-03-20T17:54:38.590Z,96.33
2018-03-20T17:57:06.570Z,91.53
2018-03-20T17:59:34.171Z,93.37
2018-03-20T18:02:02.599Z,84.17
2018-03-20T18:04:30.666Z,76.87
2018-03-20T18:06:59.147Z,90.80
2018-03-20T18:09:27.748Z,82.67
2018-03-20T18:11:56.397Z,75.97
2018-03-20T18:14:24.358Z,84.37
2018-03-20T18:16:52.223Z,81.63
2018-03-20T18:19:19.899Z,77.03
2018-03-20T18:21:47.569Z,74.97
2018-03-20T18:24:16.048Z,81.47
2018-03-20T18:26:43.916Z,131.80
2018-03-20T18:29:11.515Z,143.43
2018-03-20T18:31:39.337Z,160.57
2018-03-20T18:34:06.997Z,129.23
2018-03-20T18:36:34.964Z,135.53
2018-03-20T18:39:02.579Z,119.63
2018-03-20T18:41:30.400Z,119.77
2018-03-20T18:43:58.164Z,120.13
2018-03-20T18:46:25.741Z,113.87
2018-03-20T18:48:53.882Z,105.10
2018-03-20T18:51:21.504Z,113.60
2018-03-20T18:53:49.216Z,89.43
2018-03-20T18:56:16.889Z,130.67
2018-03-20T18:58:44.480Z,251.60
2018-03-20T19:01:12.390Z,196.37
2018-03-20T19:03:40.072Z,122.77
2018-03-20T19:06:07.796Z,106.37
2018-03-20T19:08:35.493Z,92.17
2018-03-20T19:11:03.868Z,76.40
2018-03-20T19:13:32.039Z,46.07
2018-03-20T19:15:59.619Z,40.23
2018-03-20T19:18:28.469Z,52.63
2018-03-20T19:20:56.308Z,57.50
2018-03-20T19:23:24.436Z,51.67
2018-03-20T19:25:52.093Z,52.23
2018-03-20T19:28:19.866Z,45.13
2018-03-20T19:30:48.258Z,39.03
2018-03-20T19:33:16.667Z,45.13
2018-03-20T19:35:44.260Z,122.10
2018-03-20T19:38:11.974Z,53.40
2018-03-20T19:40:40.595Z,74.07
2018-03-20T19:43:08.354Z,88.00
2018-03-20T19:45:35.920Z,74.83
2018-03-20T19:48:03.680Z,81.30
2018-03-20T19:50:32.089Z,92.30
2018-03-20T19:52:59.849Z,80.90
2018-03-20T19:55:27.804Z,82.83
2018-03-20T19:57:55.391Z,86.20
2018-03-20T20:00:22.981Z,94.13
2018-03-20T20:02:50.601Z,85.47
2018-03-20T20:05:18.528Z,89.60
2018-03-20T20:07:46.106Z,95.80
2018-03-20T20:10:13.881Z,70.20
2018-03-20T20:12:41.714Z,76.47
2018-03-20T20:15:10.111Z,85.17
2018-03-20T20:17:37.766Z,84.73
2018-03-20T20:20:05.721Z,82.40
2018-03-20T20:22:33.631Z,78.47
2018-03-20T20:25:01.755Z,85.13
2018-03-20T20:27:29.561Z,88.60
2018-03-20T20:29:57.126Z,90.50
2018-03-20T20:32:24.731Z,93.40
2018-03-20T20:34:52.297Z,73.57
2018-03-20T20:37:19.889Z,64.03
2018-03-20T20:39:47.897Z,69.67
2018-03-20T20:42:16.231Z,59.17
2018-03-20T20:44:43.807Z,68.73
2018-03-20T20:47:11.409Z,65.27
2018-03-20T20:49:39.033Z,84.07
2018-03-20T20:52:06.724Z,71.70
2018-03-20T20:54:34.494Z,58.60
2018-03-20T20:57:02.685Z,74.93
2018-03-20T20:59:30.255Z,66.97
2018-03-20T21:01:57.884Z,67.93
2018-03-20T21:04:25.659Z,54.60
2018-03-20T21:06:53.228Z,58.10
2018-03-20T21:09:21.390Z,49.97
2018-03-20T21:11:48.947Z,69.53
2018-03-20T21:14:17.023Z,116.83
2018-03-20T21:16:44.790Z,83.70
2018-03-20T21:19:12.647Z,72.23
2018-03-20T21:21:40.259Z,62.10
2018-03-20T21:24:08.413Z,93.40
2018-03-20T21:26:37.267Z,60.73
2018-03-20T21:29:05.341Z,62.47
2018-03-20T21:31:33.960Z,97.07
2018-03-20T21:34:01.557Z,74.07
2018-03-20T21:36:29.136Z,58.10
2018-03-20T21:38:56.737Z,61.17
2018-03-20T21:41:24.344Z,59.23
2018-03-20T21:43:52.735Z,57.53
2018-03-20T21:46:20.522Z,55.67
2018-03-20T21:48:48.651Z,45.20
2018-03-20T21:51:16.329Z,52.27
2018-03-20T21:53:44.248Z,53.63
2018-03-20T21:56:12.592Z,54.03
2018-03-20T21:58:40.161Z,59.90
2018-03-20T22:01:08.927Z,70.97
2018-03-20T22:03:36.491Z,60.73
2018-03-20T22:06:04.356Z,62.53
2018-03-20T22:08:32.026Z,85.87
2018-03-20T22:10:59.659Z,66.57
2018-03-20T22:13:27.567Z,65.90
2018-03-20T22:15:55.190Z,60.37
2018-03-20T22:18:23.242Z,51.87
2018-03-20T22:20:50.955Z,54.67
2018-03-20T22:23:18.745Z,67.60
2018-03-20T22:25:46.480Z,50.50
2018-03-20T22:28:14.145Z,50.57
2018-03-20T22:30:41.866Z,58.70
2018-03-20T22:33:09.703Z,48.83
2018-03-20T22:35:37.529Z,83.97
2018-03-20T22:38:05.156Z,66.87
2018-03-20T22:40:32.712Z,54.13
2018-03-20T22:43:00.724Z,47.50
2018-03-20T22:45:28.567Z,47.00
2018-03-20T22:47:56.256Z,53.00
2018-03-20T22:50:23.822Z,58.30
2018-03-20T22:52:51.429Z,53.93
2018-03-20T22:55:19.205Z,60.50
2018-03-20T22:57:46.834Z,72.03
2018-03-20T23:00:26.258Z,68.13
2018-03-20T23:02:54.610Z,76.13
2018-03-20T23:05:22.332Z,76.13
2018-03-20T23:07:50.040Z,72.50
2018-03-20T23:10:18.391Z,73.80
2018-03-20T23:12:46.009Z,70.47
2018-03-20T23:15:13.918Z,67.87
2018-03-20T23:17:42.508Z,67.27
2018-03-20T23:20:10.090Z,64.27
2018-03-20T23:22:37.903Z,68.00
2018-03-20T23:25:05.521Z,54.57
2018-03-20T23:27:33.869Z,65.33
2018-03-20T23:30:01.500Z,55.07
2018-03-20T23:32:29.118Z,57.70
2018-03-20T23:34:57.449Z,50.67
2018-03-20T23:37:25.084Z,49.40
2018-03-20T23:39:52.666Z,53.23
2018-03-20T23:42:20.576Z,52.50
2018-03-20T23:44:49.557Z,51.17
2018-03-20T23:47:17.353Z,47.87
2018-03-20T23:49:44.926Z,55.67
2018-03-20T23:52:12.553Z,50.73
2018-03-20T23:54:40.634Z,47.43
2018-03-20T23:57:08.340Z,49.33
2018-03-20T23:59:36.393Z,47.40
